Portada
METAR-TAF:

METAR-TAF

Aeropuertos :

Uagadugú, Burkina Faso

Aeropuerto de Uagadugú

latitud: 12-21N, longitud: 001-31W, altitud: 316 m

Observación

El informe se hizo hace 2 horas y 24 minutos, a las 22:00 UTC
Viento calma
Temperatura 24°C
Humedad 44%
Presión 1012 hPa
Visibilidad: 8000 m

METAR: DFFD 192200Z 00000KT 8000 NSC 24/11 Q1012 NOSIG

Hora: 00:24 (00:24 UTC)

Pronóstico

El informe se hizo hace 1 hora y 24 minutos, a las 23:00 UTC
Pronóstico válido del 20 a las 00 UTC al 21 a las 06 UTC
Viento 6 kt del noreste
Visibilidad: 8000 m
Temporalmente
del 20 a las 06 UTC al 20 a las 10 UTC
Visibilidad: 2500 m
calima
Temporalmente
del 20 a las 17 UTC al 20 a las 20 UTC
Visibilidad: 4000 m
calima

TAF: DFFD 192300Z 2000/2106 04006KT 8000 NSC TEMPO 2006/2010 2500 HZ TEMPO 2017/2020 4000 HZ

Observaciones y pronósticos meteorológicos de más de 4000 aeropuertos (mensajes METAR y TAF).

Los puntos amarillos y rojos representan las estaciones disponibles.

Ponga el ratón en el punto deseado para ver el nombre de la estación.

Haga clic para ver las observaciones y los pronósticos meteorológicos.

Para cambiar el mapa : haga clic en los botones verdes con una cruz de color negro para hacer un zoom, en el botón verde con un guión para alejar o en las flechas verdes para mapas adyacentes.


METAR-TAF: